createdAt,value
2022-12-06T03:36:43.125Z,12.43
2022-12-06T03:37:58.463Z,10.32
2022-12-06T03:39:09.776Z,7.45
2022-12-06T03:40:30.357Z,7.42
2022-12-06T03:41:53.019Z,8.45
2022-12-06T03:43:03.639Z,6.77
2022-12-06T03:44:12.935Z,8.93
2022-12-06T03:46:44.422Z,7.88
2022-12-06T03:49:37.931Z,9.23
2022-12-06T03:52:06.668Z,8.42
2022-12-06T03:53:19.123Z,7.95
2022-12-06T03:54:28.494Z,7.65
2022-12-06T03:55:38.227Z,7.92
2022-12-06T03:56:48.164Z,10.88
2022-12-06T03:57:58.753Z,11.65
2022-12-06T04:00:26.453Z,10.73
2022-12-06T04:01:36.575Z,10.97
2022-12-06T04:04:02.935Z,10.28
2022-12-06T04:05:12.486Z,9.00
2022-12-06T04:06:23.354Z,10.82
2022-12-06T04:07:33.210Z,13.60
2022-12-06T04:08:41.933Z,9.93
2022-12-06T04:11:14.439Z,10.28
2022-12-06T04:12:43.468Z,9.87
2022-12-06T04:13:54.004Z,11.22
2022-12-06T04:15:05.026Z,10.12
2022-12-06T04:16:32.553Z,12.48
2022-12-06T04:18:01.368Z,10.43
2022-12-06T04:19:10.431Z,8.97
2022-12-06T04:20:20.291Z,9.85
2022-12-06T04:21:32.555Z,9.20
2022-12-06T04:23:01.767Z,12.50
2022-12-06T04:24:11.479Z,11.05
2022-12-06T04:26:38.939Z,9.82
2022-12-06T04:28:06.903Z,8.95
2022-12-06T04:29:34.105Z,12.73
2022-12-06T04:31:02.121Z,11.43
2022-12-06T04:32:31.890Z,10.10
2022-12-06T04:35:33.679Z,9.92
2022-12-06T04:38:36.997Z,9.78
2022-12-06T04:39:46.394Z,9.58
2022-12-06T04:42:31.764Z,9.83
2022-12-06T04:43:43.139Z,12.88
2022-12-06T04:44:52.429Z,14.08
2022-12-06T04:46:01.482Z,11.10
2022-12-06T04:48:27.370Z,10.33
2022-12-06T04:50:53.289Z,9.73
2022-12-06T04:53:20.225Z,12.38
2022-12-06T04:54:30.180Z,9.05
2022-12-06T04:55:39.938Z,11.23
2022-12-06T04:56:50.014Z,9.72
2022-12-06T04:57:59.621Z,9.75
2022-12-06T04:59:10.330Z,9.83
2022-12-06T05:02:45.794Z,9.75
2022-12-06T05:05:10.621Z,9.20
2022-12-06T05:07:35.247Z,9.72
2022-12-06T05:08:45.043Z,10.77
2022-12-06T05:09:53.635Z,11.30
2022-12-06T05:11:03.309Z,8.20
2022-12-06T05:12:12.106Z,8.95
2022-12-06T05:13:21.955Z,10.42
2022-12-06T05:15:56.802Z,9.82
2022-12-06T05:17:06.596Z,9.27
2022-12-06T05:19:31.150Z,8.83
2022-12-06T05:20:40.298Z,10.23
2022-12-06T05:23:05.172Z,9.65
2022-12-06T05:25:30.810Z,9.80
2022-12-06T05:27:55.368Z,10.38
2022-12-06T05:29:04.624Z,8.80
2022-12-06T05:30:14.728Z,9.32
2022-12-06T05:32:40.282Z,13.12
2022-12-06T05:33:50.628Z,9.22
2022-12-06T05:37:55.710Z,9.70
2022-12-06T05:39:05.060Z,12.40
2022-12-06T05:40:15.072Z,8.65
2022-12-06T05:41:25.131Z,9.40
2022-12-06T05:42:33.830Z,11.15
2022-12-06T05:43:42.486Z,10.12
2022-12-06T05:44:52.338Z,12.75
2022-12-06T05:46:01.069Z,11.05
2022-12-06T05:47:11.869Z,13.37
2022-12-06T05:48:23.031Z,12.17
2022-12-06T05:49:31.602Z,11.03
2022-12-06T05:50:40.735Z,12.17
2022-12-06T05:51:49.783Z,10.73
2022-12-06T05:53:00.019Z,12.53
2022-12-06T05:54:09.039Z,11.60
2022-12-06T05:56:33.826Z,12.08
2022-12-06T05:57:47.343Z,12.70
2022-12-06T05:58:56.036Z,13.08
2022-12-06T06:01:22.022Z,10.48
2022-12-06T06:02:31.199Z,11.65
2022-12-06T06:03:46.917Z,13.57
2022-12-06T06:04:53.038Z,12.37
2022-12-06T06:06:02.986Z,9.70
2022-12-06T06:07:12.752Z,9.52
2022-12-06T06:08:21.702Z,12.10
2022-12-06T06:10:46.316Z,10.15
2022-12-06T06:11:56.840Z,11.30
2022-12-06T06:14:22.478Z,11.92
2022-12-06T06:15:31.503Z,12.05
2022-12-06T10:53:01.548Z,20.40
2022-12-06T10:56:18.794Z,21.03
2022-12-06T11:00:21.416Z,16.85
2022-12-06T11:03:19.744Z,17.58
2022-12-06T11:07:24.895Z,22.32
2022-12-06T11:10:01.558Z,21.60
2022-12-06T11:12:38.745Z,18.42
2022-12-06T11:15:25.042Z,19.52
2022-12-06T11:19:36.234Z,14.87
2022-12-06T11:20:56.477Z,17.20
2022-12-06T11:24:10.940Z,14.72
2022-12-06T11:26:51.404Z,17.37
2022-12-06T11:29:46.433Z,14.73
2022-12-06T11:32:16.039Z,16.53
2022-12-06T11:35:22.540Z,15.10
2022-12-06T11:36:32.306Z,16.60
2022-12-06T11:37:44.658Z,16.62
2022-12-06T11:38:55.493Z,16.47
2022-12-06T11:41:48.216Z,17.85
2022-12-06T11:43:01.357Z,16.70
2022-12-06T11:44:17.967Z,13.92
2022-12-06T11:45:37.130Z,13.07
2022-12-06T11:49:37.190Z,14.17
2022-12-06T11:50:49.778Z,16.13
2022-12-06T11:55:07.277Z,14.02
2022-12-06T11:56:26.738Z,20.05
2022-12-06T11:57:39.945Z,16.05
2022-12-06T11:59:20.019Z,15.08
2022-12-06T12:00:31.485Z,17.38
2022-12-06T12:01:49.686Z,16.48
2022-12-06T12:02:59.212Z,18.78
2022-12-06T12:04:41.216Z,15.57
2022-12-06T12:07:14.398Z,15.85
2022-12-06T12:08:26.229Z,13.88
2022-12-06T12:09:38.039Z,17.02
2022-12-06T12:10:59.186Z,16.37
2022-12-06T12:13:44.897Z,14.00
2022-12-06T12:14:59.536Z,18.95
2022-12-06T12:16:30.295Z,17.34
2022-12-06T12:17:43.765Z,12.03
2022-12-06T12:19:02.496Z,16.55
2022-12-06T12:20:21.071Z,14.32
2022-12-06T12:23:08.780Z,17.70
2022-12-06T12:26:16.092Z,13.60
2022-12-06T12:27:41.056Z,15.97
2022-12-06T12:30:42.672Z,16.23
2022-12-06T12:33:18.643Z,14.62
2022-12-06T12:34:29.843Z,14.58
2022-12-06T12:35:41.584Z,15.92
2022-12-06T12:37:00.305Z,17.73
2022-12-06T12:39:41.917Z,17.70
2022-12-06T12:40:58.991Z,19.73
2022-12-06T12:42:27.350Z,13.60
2022-12-06T12:43:36.340Z,14.48
2022-12-06T12:44:45.765Z,18.38
2022-12-06T12:47:28.983Z,18.50
2022-12-06T12:48:41.294Z,17.13
2022-12-06T12:50:06.047Z,17.88
2022-12-06T12:52:46.341Z,18.73
2022-12-06T12:55:21.542Z,21.40
2022-12-06T12:57:53.142Z,22.02
2022-12-06T13:00:25.348Z,21.52
2022-12-06T13:01:58.200Z,23.70
2022-12-06T13:05:50.026Z,24.13
2022-12-06T13:08:22.842Z,22.45
2022-12-06T13:10:58.674Z,26.07
2022-12-06T13:12:08.540Z,27.20
2022-12-06T13:13:24.512Z,23.57
2022-12-06T13:14:36.249Z,23.33
2022-12-06T13:15:55.357Z,22.35
2022-12-06T13:18:45.030Z,16.12
2022-12-06T13:19:54.181Z,14.22
2022-12-06T13:21:16.923Z,17.02
2022-12-06T13:22:29.627Z,17.45
2022-12-06T13:23:41.617Z,16.80
2022-12-06T13:25:04.481Z,16.70
2022-12-06T13:26:29.666Z,13.08
2022-12-06T13:27:44.933Z,10.97
2022-12-06T13:28:57.225Z,13.92
2022-12-06T13:30:15.767Z,10.95
2022-12-06T13:32:51.565Z,11.12
2022-12-06T13:34:05.135Z,12.52
2022-12-06T13:35:27.422Z,12.30
2022-12-06T13:36:36.334Z,11.03
2022-12-06T13:37:54.601Z,9.60
2022-12-06T13:39:27.891Z,10.27
2022-12-06T13:40:40.583Z,9.27
2022-12-06T13:42:14.507Z,9.58
2022-12-06T13:43:26.779Z,11.47
2022-12-06T13:44:42.486Z,14.32
2022-12-06T13:46:12.344Z,11.53
2022-12-06T13:48:55.201Z,12.67
2022-12-06T13:50:20.104Z,13.70
2022-12-06T13:52:56.071Z,11.45
2022-12-06T13:54:11.988Z,10.77
2022-12-06T13:55:28.594Z,13.25
2022-12-06T13:56:41.010Z,17.75
2022-12-06T13:58:01.688Z,11.92
2022-12-06T13:59:17.255Z,13.97
2022-12-06T14:00:35.186Z,10.62
2022-12-06T14:03:22.121Z,15.82
2022-12-06T14:08:17.098Z,12.77
2022-12-06T14:09:28.430Z,13.75
2022-12-06T14:10:38.587Z,13.50
2022-12-06T14:11:48.133Z,12.70
2022-12-06T14:13:01.810Z,13.03
2022-12-06T14:14:20.230Z,12.42
2022-12-06T14:15:29.886Z,13.52
2022-12-06T14:16:43.426Z,11.05
2022-12-06T14:19:23.427Z,14.90
2022-12-06T14:20:33.532Z,16.75
2022-12-06T14:21:45.936Z,16.02
2022-12-06T14:22:55.159Z,14.45
2022-12-06T14:24:05.644Z,19.30
2022-12-06T14:25:23.809Z,13.55
2022-12-06T14:26:35.016Z,14.63
2022-12-06T14:27:48.240Z,17.83
2022-12-06T14:30:30.581Z,12.40
2022-12-06T14:31:41.486Z,12.65
2022-12-06T14:32:53.610Z,14.17
2022-12-06T14:34:04.986Z,11.07
2022-12-06T14:36:41.011Z,11.57
2022-12-06T14:38:00.301Z,12.70
2022-12-06T14:39:15.266Z,11.98
2022-12-06T14:40:49.562Z,11.17
2022-12-06T14:42:14.879Z,11.15
2022-12-06T14:43:27.737Z,12.98
2022-12-06T14:44:36.988Z,12.72
2022-12-06T14:45:46.882Z,12.93
2022-12-06T18:44:57.999Z,23.50
2022-12-06T18:47:45.667Z,19.50
2022-12-06T18:50:14.515Z,17.97
2022-12-06T18:51:28.268Z,20.45
2022-12-06T18:52:37.652Z,20.55
2022-12-06T18:53:47.963Z,21.45
2022-12-06T18:54:57.639Z,18.85
2022-12-06T18:56:09.777Z,20.95
2022-12-06T18:57:20.101Z,19.55
2022-12-06T18:58:28.827Z,17.35
2022-12-06T18:59:37.710Z,15.92
2022-12-06T19:00:47.042Z,18.03
2022-12-06T19:01:56.307Z,17.07
2022-12-06T19:03:05.993Z,17.90
2022-12-06T19:04:16.087Z,17.37
2022-12-06T19:06:44.669Z,17.15
2022-12-06T19:07:54.641Z,20.12
2022-12-06T19:10:31.536Z,15.90
2022-12-06T19:11:43.138Z,16.55
2022-12-06T19:12:51.811Z,15.27
2022-12-06T19:14:00.570Z,16.53
2022-12-06T19:15:10.811Z,22.20
2022-12-06T19:17:47.115Z,20.50
2022-12-06T19:18:58.972Z,17.35
2022-12-06T19:20:08.672Z,18.37
2022-12-06T19:21:18.153Z,16.48
2022-12-06T19:22:28.468Z,17.60
2022-12-06T19:23:37.091Z,17.85
2022-12-06T19:24:45.885Z,15.07
2022-12-06T19:26:04.863Z,17.70
2022-12-06T19:27:14.027Z,16.60
2022-12-06T19:28:23.761Z,16.77
2022-12-06T19:29:32.899Z,15.72
2022-12-06T19:30:41.989Z,13.40
2022-12-06T19:31:51.492Z,18.37
2022-12-06T19:33:00.817Z,19.84
2022-12-06T19:34:20.424Z,14.60
2022-12-06T19:35:29.238Z,14.30
2022-12-06T19:36:38.586Z,15.82
2022-12-06T19:37:48.201Z,16.98
2022-12-06T19:40:23.083Z,15.35
2022-12-06T19:41:34.848Z,14.45
2022-12-06T19:44:17.165Z,14.42
2022-12-06T19:45:26.091Z,14.58
2022-12-06T19:46:37.006Z,15.05
2022-12-06T19:47:45.804Z,16.15
2022-12-06T19:49:00.307Z,16.13
2022-12-06T19:50:11.092Z,15.80
2022-12-06T19:52:31.040Z,14.20
2022-12-06T19:53:42.397Z,12.97
2022-12-06T19:54:53.238Z,14.74
2022-12-06T19:57:11.473Z,18.85
2022-12-06T19:58:24.006Z,15.70
2022-12-06T19:59:36.463Z,14.30
2022-12-06T20:00:48.157Z,13.50
2022-12-06T20:01:58.294Z,16.70
2022-12-06T20:03:08.069Z,13.20
2022-12-06T20:04:19.995Z,15.37
2022-12-06T20:05:28.909Z,19.20
2022-12-06T20:06:39.232Z,15.95
2022-12-06T20:07:48.868Z,15.85
2022-12-06T20:09:00.817Z,14.18
2022-12-06T20:10:10.872Z,15.80
2022-12-06T20:11:40.399Z,15.47
2022-12-06T20:12:50.245Z,14.60
2022-12-06T20:14:04.713Z,15.70
2022-12-06T20:15:14.493Z,13.95
2022-12-06T20:16:23.575Z,14.07
2022-12-06T20:17:32.730Z,17.90
2022-12-06T20:18:41.530Z,15.12
2022-12-06T20:19:50.576Z,17.25
2022-12-06T20:20:59.299Z,16.70
2022-12-06T20:22:09.548Z,15.50
2022-12-06T20:23:18.534Z,17.35
2022-12-06T20:24:27.370Z,15.90
2022-12-06T20:25:37.233Z,16.42
2022-12-06T20:26:49.161Z,17.95
2022-12-06T20:28:00.088Z,21.40
2022-12-06T20:29:10.019Z,16.15
2022-12-06T20:30:21.281Z,14.80
2022-12-06T20:31:31.010Z,17.03
2022-12-06T20:32:40.003Z,16.75
2022-12-06T20:33:49.608Z,13.16
2022-12-06T20:34:58.382Z,13.67
2022-12-06T20:37:30.397Z,18.88
2022-12-06T20:38:39.437Z,14.43
2022-12-06T20:39:48.085Z,17.98
2022-12-06T20:40:59.229Z,15.68
2022-12-06T20:42:07.776Z,15.75
2022-12-06T20:43:16.337Z,18.25
2022-12-06T20:45:40.591Z,16.78
2022-12-06T20:46:50.436Z,15.77
2022-12-06T20:47:59.847Z,13.78
2022-12-06T20:49:08.967Z,17.68
2022-12-06T20:50:18.094Z,16.68
2022-12-06T20:51:28.570Z,14.15
2022-12-06T20:52:38.794Z,14.00
2022-12-06T20:53:48.931Z,15.20
2022-12-06T20:54:57.500Z,15.22
2022-12-06T20:56:12.606Z,15.37
2022-12-06T20:57:22.976Z,14.42
2022-12-06T20:58:32.425Z,12.00
2022-12-06T20:59:42.038Z,11.82
2022-12-06T21:00:51.595Z,12.52
2022-12-06T21:02:00.662Z,12.20
2022-12-06T21:03:09.614Z,12.50
2022-12-06T21:04:18.847Z,14.20
2022-12-06T21:05:29.409Z,14.20
2022-12-06T21:08:00.597Z,13.62
2022-12-06T21:09:10.895Z,14.58
2022-12-06T21:10:19.661Z,13.20
2022-12-06T21:11:28.619Z,16.48
2022-12-06T21:12:37.350Z,14.13
2022-12-06T21:13:50.071Z,15.93
2022-12-06T21:14:58.944Z,11.27
2022-12-06T21:16:18.361Z,13.30
2022-12-06T21:17:27.061Z,14.20
2022-12-06T21:18:36.212Z,14.77
2022-12-06T21:22:18.151Z,17.05
2022-12-06T21:23:27.677Z,14.93
2022-12-06T21:24:38.506Z,15.35
2022-12-06T21:26:55.693Z,20.07
2022-12-06T21:28:06.116Z,21.70
2022-12-06T21:30:35.308Z,18.08
2022-12-06T21:31:45.610Z,18.48
2022-12-06T21:32:55.566Z,19.00
2022-12-06T21:34:04.944Z,33.00
2022-12-06T21:35:14.175Z,20.42
2022-12-06T21:36:24.306Z,19.63
2022-12-06T21:37:33.524Z,22.07
2022-12-06T21:38:44.295Z,18.55
2022-12-06T21:39:53.357Z,21.27
2022-12-06T21:41:09.098Z,20.00
2022-12-06T21:43:36.991Z,16.88
2022-12-06T21:44:46.088Z,17.20
2022-12-06T21:45:54.889Z,18.73
2022-12-06T21:48:19.847Z,17.17
2022-12-06T21:49:28.779Z,16.95
2022-12-06T21:50:38.054Z,16.23
2022-12-06T21:51:47.923Z,18.07
2022-12-06T21:52:57.601Z,13.13
2022-12-06T21:54:06.376Z,17.83
2022-12-06T21:55:15.031Z,15.87
2022-12-06T21:56:27.719Z,16.18
2022-12-06T21:57:37.049Z,16.32
2022-12-06T21:58:47.556Z,16.78
2022-12-06T21:59:56.661Z,13.55
2022-12-06T22:01:07.886Z,17.92
2022-12-06T22:02:18.237Z,15.98
2022-12-06T22:03:27.712Z,13.50
2022-12-06T22:04:37.643Z,14.93
2022-12-06T22:05:47.521Z,15.70
2022-12-06T22:06:56.558Z,13.72
2022-12-06T22:08:06.088Z,13.12
2022-12-06T22:09:15.350Z,15.95
2022-12-06T22:10:25.696Z,12.95
2022-12-06T22:11:34.920Z,14.62
2022-12-06T22:12:45.750Z,11.57
2022-12-06T22:15:07.981Z,15.25
2022-12-06T22:16:17.535Z,16.53
2022-12-06T22:17:26.782Z,15.70
2022-12-06T22:18:44.075Z,16.34
2022-12-06T22:19:49.295Z,13.85
